sensor_id;sensor_type;location;lat;lon;timestamp;pressure;altitude;pressure_sealevel;temperature;humidity
60642;BME280;46837;52.446;-1.930;2022-07-29T00:00:09;100454.06;;;18.62;52.38
60642;BME280;46837;52.446;-1.930;2022-07-29T00:01:09;100453.03;;;18.61;52.50
60642;BME280;46837;52.446;-1.930;2022-07-29T00:02:09;100451.71;;;18.58;52.61
60642;BME280;46837;52.446;-1.930;2022-07-29T00:03:09;100450.19;;;18.57;52.64
60642;BME280;46837;52.446;-1.930;2022-07-29T00:04:09;100451.42;;;18.55;52.77
60642;BME280;46837;52.446;-1.930;2022-07-29T00:05:09;100449.88;;;18.50;52.78
60642;BME280;46837;52.446;-1.930;2022-07-29T00:06:09;100451.30;;;18.48;52.87
60642;BME280;46837;52.446;-1.930;2022-07-29T00:07:09;100451.96;;;18.51;52.78
60642;BME280;46837;52.446;-1.930;2022-07-29T00:08:09;100449.91;;;18.55;52.70
60642;BME280;46837;52.446;-1.930;2022-07-29T00:09:09;100449.88;;;18.47;52.84
60642;BME280;46837;52.446;-1.930;2022-07-29T00:10:09;100447.84;;;18.45;52.94
60642;BME280;46837;52.446;-1.930;2022-07-29T00:11:09;100450.85;;;18.49;52.91
60642;BME280;46837;52.446;-1.930;2022-07-29T00:12:09;100449.59;;;18.50;52.83
60642;BME280;46837;52.446;-1.930;2022-07-29T00:13:09;100452.13;;;18.55;52.66
60642;BME280;46837;52.446;-1.930;2022-07-29T00:14:09;100450.11;;;18.57;52.59
60642;BME280;46837;52.446;-1.930;2022-07-29T00:15:09;100451.54;;;18.50;52.69
60642;BME280;46837;52.446;-1.930;2022-07-29T00:16:09;100447.53;;;18.33;53.01
60642;BME280;46837;52.446;-1.930;2022-07-29T00:17:09;100446.71;;;18.31;52.99
60642;BME280;46837;52.446;-1.930;2022-07-29T00:18:09;100446.28;;;18.35;52.91
60642;BME280;46837;52.446;-1.930;2022-07-29T00:19:09;100450.04;;;18.35;53.00
60642;BME280;46837;52.446;-1.930;2022-07-29T00:20:09;100446.75;;;18.38;52.88
60642;BME280;46837;52.446;-1.930;2022-07-29T00:21:09;100449.42;;;18.35;53.01
60642;BME280;46837;52.446;-1.930;2022-07-29T00:22:09;100449.07;;;18.33;52.98
60642;BME280;46837;52.446;-1.930;2022-07-29T00:23:09;100447.43;;;18.33;52.98
60642;BME280;46837;52.446;-1.930;2022-07-29T00:24:09;100444.36;;;18.36;52.89
60642;BME280;46837;52.446;-1.930;2022-07-29T00:25:09;100447.18;;;18.39;52.83
60642;BME280;46837;52.446;-1.930;2022-07-29T00:26:09;100444.23;;;18.36;52.89
60642;BME280;46837;52.446;-1.930;2022-07-29T00:27:09;100443.14;;;18.34;53.10
60642;BME280;46837;52.446;-1.930;2022-07-29T00:28:09;100443.10;;;18.18;53.25
60642;BME280;46837;52.446;-1.930;2022-07-29T00:29:09;100442.70;;;18.14;53.42
60642;BME280;46837;52.446;-1.930;2022-07-29T00:30:09;100442.27;;;18.18;53.31
60642;BME280;46837;52.446;-1.930;2022-07-29T00:31:09;100446.07;;;18.13;53.40
60642;BME280;46837;52.446;-1.930;2022-07-29T00:32:09;100444.05;;;18.12;53.43
60642;BME280;46837;52.446;-1.930;2022-07-29T00:33:09;100443.25;;;18.13;53.36
60642;BME280;46837;52.446;-1.930;2022-07-29T00:34:09;100444.05;;;18.10;53.47
60642;BME280;46837;52.446;-1.930;2022-07-29T00:35:13;100445.78;;;18.02;53.70
60642;BME280;46837;52.446;-1.930;2022-07-29T00:36:09;100445.12;;;18.00;53.84
60642;BME280;46837;52.446;-1.930;2022-07-29T00:37:09;100443.99;;;17.91;54.01
60642;BME280;46837;52.446;-1.930;2022-07-29T00:38:09;100440.19;;;17.95;53.93
60642;BME280;46837;52.446;-1.930;2022-07-29T00:39:09;100442.87;;;17.84;54.21
60642;BME280;46837;52.446;-1.930;2022-07-29T00:40:09;100444.94;;;17.83;54.28
60642;BME280;46837;52.446;-1.930;2022-07-29T00:41:09;100443.34;;;17.90;54.20
60642;BME280;46837;52.446;-1.930;2022-07-29T00:42:09;100442.81;;;17.87;54.26
60642;BME280;46837;52.446;-1.930;2022-07-29T00:43:09;100444.93;;;17.79;54.49
60642;BME280;46837;52.446;-1.930;2022-07-29T00:44:09;100448.42;;;17.83;54.45
60642;BME280;46837;52.446;-1.930;2022-07-29T00:45:09;100450.06;;;17.90;54.22
60642;BME280;46837;52.446;-1.930;2022-07-29T00:46:09;100447.50;;;17.85;54.40
60642;BME280;46837;52.446;-1.930;2022-07-29T00:47:09;100447.48;;;17.86;54.45
60642;BME280;46837;52.446;-1.930;2022-07-29T00:48:09;100445.35;;;17.92;54.20
60642;BME280;46837;52.446;-1.930;2022-07-29T00:49:10;100440.85;;;17.88;54.42
60642;BME280;46837;52.446;-1.930;2022-07-29T00:50:10;100442.83;;;17.91;54.32
60642;BME280;46837;52.446;-1.930;2022-07-29T00:51:09;100443.83;;;17.98;54.17
60642;BME280;46837;52.446;-1.930;2022-07-29T00:52:09;100440.84;;;17.89;54.33
60642;BME280;46837;52.446;-1.930;2022-07-29T00:53:09;100442.02;;;17.86;54.43
60642;BME280;46837;52.446;-1.930;2022-07-29T00:54:09;100442.22;;;17.91;54.37
60642;BME280;46837;52.446;-1.930;2022-07-29T00:55:10;100441.26;;;17.87;54.50
60642;BME280;46837;52.446;-1.930;2022-07-29T00:56:09;100441.54;;;17.85;54.55
60642;BME280;46837;52.446;-1.930;2022-07-29T00:57:09;100441.35;;;17.88;54.54
60642;BME280;46837;52.446;-1.930;2022-07-29T00:58:09;100443.03;;;17.85;54.61
60642;BME280;46837;52.446;-1.930;2022-07-29T00:59:09;100441.23;;;17.83;54.62
60642;BME280;46837;52.446;-1.930;2022-07-29T01:00:10;100442.50;;;17.79;54.68
60642;BME280;46837;52.446;-1.930;2022-07-29T01:01:09;100443.37;;;17.84;54.51
60642;BME280;46837;52.446;-1.930;2022-07-29T01:02:09;100443.91;;;17.85;54.54
60642;BME280;46837;52.446;-1.930;2022-07-29T01:03:09;100442.69;;;17.78;54.72
60642;BME280;46837;52.446;-1.930;2022-07-29T01:04:09;100445.87;;;17.75;54.77
60642;BME280;46837;52.446;-1.930;2022-07-29T01:05:09;100445.72;;;17.72;54.85
60642;BME280;46837;52.446;-1.930;2022-07-29T01:06:09;100443.19;;;17.78;54.72
60642;BME280;46837;52.446;-1.930;2022-07-29T01:07:09;100444.91;;;17.80;54.68
60642;BME280;46837;52.446;-1.930;2022-07-29T01:08:09;100444.73;;;17.80;54.59
60642;BME280;46837;52.446;-1.930;2022-07-29T01:09:09;100448.31;;;17.79;54.64
60642;BME280;46837;52.446;-1.930;2022-07-29T01:10:10;100449.02;;;17.81;54.57
60642;BME280;46837;52.446;-1.930;2022-07-29T01:11:09;100446.15;;;17.86;54.39
60642;BME280;46837;52.446;-1.930;2022-07-29T01:12:09;100446.72;;;17.80;54.52
60642;BME280;46837;52.446;-1.930;2022-07-29T01:13:09;100444.59;;;17.82;54.55
60642;BME280;46837;52.446;-1.930;2022-07-29T01:14:09;100443.23;;;17.80;54.62
60642;BME280;46837;52.446;-1.930;2022-07-29T01:15:09;100442.74;;;17.76;54.73
60642;BME280;46837;52.446;-1.930;2022-07-29T01:16:13;100442.96;;;17.80;54.65
60642;BME280;46837;52.446;-1.930;2022-07-29T01:17:14;100440.54;;;17.85;54.61
60642;BME280;46837;52.446;-1.930;2022-07-29T01:18:11;100436.54;;;17.86;54.55
60642;BME280;46837;52.446;-1.930;2022-07-29T01:19:19;100443.57;;;17.88;54.54
60642;BME280;46837;52.446;-1.930;2022-07-29T01:30:09;100442.78;;;17.67;54.87
60642;BME280;46837;52.446;-1.930;2022-07-29T01:31:09;100444.72;;;17.74;54.72
60642;BME280;46837;52.446;-1.930;2022-07-29T01:32:10;100441.03;;;17.74;54.75
60642;BME280;46837;52.446;-1.930;2022-07-29T01:33:11;100444.32;;;17.76;54.72
60642;BME280;46837;52.446;-1.930;2022-07-29T01:34:11;100445.68;;;17.73;54.92
60642;BME280;46837;52.446;-1.930;2022-07-29T01:35:20;100443.01;;;17.72;54.82
60642;BME280;46837;52.446;-1.930;2022-07-29T01:36:12;100446.48;;;17.75;54.72
60642;BME280;46837;52.446;-1.930;2022-07-29T01:37:15;100445.50;;;17.72;54.75
60642;BME280;46837;52.446;-1.930;2022-07-29T01:38:17;100447.57;;;17.70;54.88
60642;BME280;46837;52.446;-1.930;2022-07-29T01:39:14;100449.55;;;17.69;54.93
60642;BME280;46837;52.446;-1.930;2022-07-29T01:40:22;100449.52;;;17.68;54.97
60642;BME280;46837;52.446;-1.930;2022-07-29T01:41:14;100447.82;;;17.72;54.83
60642;BME280;46837;52.446;-1.930;2022-07-29T01:42:16;100447.42;;;17.67;54.91
60642;BME280;46837;52.446;-1.930;2022-07-29T01:43:17;100447.31;;;17.67;54.88
60642;BME280;46837;52.446;-1.930;2022-07-29T01:44:16;100444.16;;;17.69;54.76
60642;BME280;46837;52.446;-1.930;2022-07-29T01:46:13;100447.41;;;17.60;55.05
60642;BME280;46837;52.446;-1.930;2022-07-29T01:47:13;100445.04;;;17.57;55.13
60642;BME280;46837;52.446;-1.930;2022-07-29T01:48:16;100446.51;;;17.55;55.26
60642;BME280;46837;52.446;-1.930;2022-07-29T01:49:15;100444.85;;;17.61;55.14
60642;BME280;46837;52.446;-1.930;2022-07-29T01:50:10;100449.59;;;17.64;55.10
60642;BME280;46837;52.446;-1.930;2022-07-29T01:52:15;100445.03;;;17.62;55.09
60642;BME280;46837;52.446;-1.930;2022-07-29T01:53:09;100444.40;;;17.64;55.14
60642;BME280;46837;52.446;-1.930;2022-07-29T01:54:18;100446.87;;;17.59;55.30
60642;BME280;46837;52.446;-1.930;2022-07-29T01:55:13;100447.85;;;17.58;55.30
60642;BME280;46837;52.446;-1.930;2022-07-29T01:56:09;100448.45;;;17.58;55.26
60642;BME280;46837;52.446;-1.930;2022-07-29T01:57:09;100449.25;;;17.59;55.26
60642;BME280;46837;52.446;-1.930;2022-07-29T01:58:09;100451.96;;;17.57;55.43
60642;BME280;46837;52.446;-1.930;2022-07-29T01:59:09;100454.41;;;17.51;55.69
60642;BME280;46837;52.446;-1.930;2022-07-29T02:00:09;100453.91;;;17.55;55.60
60642;BME280;46837;52.446;-1.930;2022-07-29T02:01:09;100454.80;;;17.50;55.68
60642;BME280;46837;52.446;-1.930;2022-07-29T02:02:09;100451.20;;;17.45;55.76
60642;BME280;46837;52.446;-1.930;2022-07-29T02:03:11;100448.11;;;17.45;55.83
60642;BME280;46837;52.446;-1.930;2022-07-29T02:04:10;100446.42;;;17.47;55.83
60642;BME280;46837;52.446;-1.930;2022-07-29T02:05:10;100445.10;;;17.49;55.79
60642;BME280;46837;52.446;-1.930;2022-07-29T02:06:10;100442.84;;;17.46;55.89
60642;BME280;46837;52.446;-1.930;2022-07-29T02:07:12;100444.89;;;17.48;55.78
60642;BME280;46837;52.446;-1.930;2022-07-29T02:08:09;100443.15;;;17.50;55.70
60642;BME280;46837;52.446;-1.930;2022-07-29T02:09:09;100444.11;;;17.46;55.93
60642;BME280;46837;52.446;-1.930;2022-07-29T02:10:09;100445.45;;;17.48;55.87
60642;BME280;46837;52.446;-1.930;2022-07-29T02:11:09;100445.54;;;17.49;55.90
60642;BME280;46837;52.446;-1.930;2022-07-29T02:12:09;100444.83;;;17.44;56.13
60642;BME280;46837;52.446;-1.930;2022-07-29T02:13:09;100445.39;;;17.44;56.21
60642;BME280;46837;52.446;-1.930;2022-07-29T02:14:10;100447.48;;;17.46;56.12
60642;BME280;46837;52.446;-1.930;2022-07-29T02:15:09;100447.74;;;17.37;56.41
60642;BME280;46837;52.446;-1.930;2022-07-29T02:16:09;100449.39;;;17.31;56.60
60642;BME280;46837;52.446;-1.930;2022-07-29T02:17:09;100450.91;;;17.33;56.65
60642;BME280;46837;52.446;-1.930;2022-07-29T02:18:15;100453.21;;;17.23;56.85
60642;BME280;46837;52.446;-1.930;2022-07-29T02:19:09;100450.62;;;17.25;56.85
60642;BME280;46837;52.446;-1.930;2022-07-29T02:20:09;100448.35;;;17.26;56.82
60642;BME280;46837;52.446;-1.930;2022-07-29T02:21:09;100445.58;;;17.28;56.71
60642;BME280;46837;52.446;-1.930;2022-07-29T02:22:09;100446.84;;;17.32;56.68
60642;BME280;46837;52.446;-1.930;2022-07-29T02:23:10;100445.79;;;17.30;56.79
60642;BME280;46837;52.446;-1.930;2022-07-29T02:24:09;100445.90;;;17.32;56.74
60642;BME280;46837;52.446;-1.930;2022-07-29T02:25:09;100445.79;;;17.30;56.76
60642;BME280;46837;52.446;-1.930;2022-07-29T02:26:09;100444.73;;;17.21;56.99
60642;BME280;46837;52.446;-1.930;2022-07-29T02:27:09;100446.99;;;17.21;56.95
60642;BME280;46837;52.446;-1.930;2022-07-29T02:28:09;100444.72;;;17.20;57.11
60642;BME280;46837;52.446;-1.930;2022-07-29T02:29:09;100446.38;;;17.24;57.01
60642;BME280;46837;52.446;-1.930;2022-07-29T02:30:09;100448.80;;;17.22;56.98
60642;BME280;46837;52.446;-1.930;2022-07-29T02:31:09;100444.79;;;17.18;57.08
60642;BME280;46837;52.446;-1.930;2022-07-29T02:32:10;100445.82;;;17.22;57.07
60642;BME280;46837;52.446;-1.930;2022-07-29T02:33:09;100446.01;;;17.21;57.00
60642;BME280;46837;52.446;-1.930;2022-07-29T02:34:09;100445.79;;;17.21;57.01
60642;BME280;46837;52.446;-1.930;2022-07-29T02:35:09;100447.59;;;17.25;56.96
60642;BME280;46837;52.446;-1.930;2022-07-29T02:36:09;100449.44;;;17.20;57.15
60642;BME280;46837;52.446;-1.930;2022-07-29T02:37:09;100452.60;;;17.17;57.20
60642;BME280;46837;52.446;-1.930;2022-07-29T02:38:14;100453.91;;;17.15;57.26
60642;BME280;46837;52.446;-1.930;2022-07-29T02:39:09;100452.86;;;17.13;57.33
60642;BME280;46837;52.446;-1.930;2022-07-29T02:40:10;100454.20;;;17.12;57.40
60642;BME280;46837;52.446;-1.930;2022-07-29T02:41:15;100454.86;;;17.12;57.31
60642;BME280;46837;52.446;-1.930;2022-07-29T02:42:10;100451.54;;;17.13;57.33
60642;BME280;46837;52.446;-1.930;2022-07-29T02:43:09;100451.67;;;17.11;57.36
60642;BME280;46837;52.446;-1.930;2022-07-29T02:44:21;100449.15;;;17.04;57.54
60642;BME280;46837;52.446;-1.930;2022-07-29T02:45:09;100453.62;;;17.09;57.44
60642;BME280;46837;52.446;-1.930;2022-07-29T02:46:11;100451.12;;;17.08;57.46
60642;BME280;46837;52.446;-1.930;2022-07-29T02:47:18;100450.63;;;17.10;57.41
60642;BME280;46837;52.446;-1.930;2022-07-29T02:48:13;100450.55;;;17.17;57.21
60642;BME280;46837;52.446;-1.930;2022-07-29T02:50:17;100450.41;;;17.22;57.07
60642;BME280;46837;52.446;-1.930;2022-07-29T02:51:17;100451.62;;;17.20;57.18
60642;BME280;46837;52.446;-1.930;2022-07-29T02:52:18;100448.32;;;17.16;57.22
60642;BME280;46837;52.446;-1.930;2022-07-29T02:53:14;100447.48;;;17.13;57.33
60642;BME280;46837;52.446;-1.930;2022-07-29T02:54:09;100446.91;;;17.14;57.40
60642;BME280;46837;52.446;-1.930;2022-07-29T02:56:13;100448.45;;;17.17;57.40
60642;BME280;46837;52.446;-1.930;2022-07-29T02:59:10;100448.30;;;17.14;57.39
60642;BME280;46837;52.446;-1.930;2022-07-29T03:00:09;100444.72;;;17.11;57.51
60642;BME280;46837;52.446;-1.930;2022-07-29T03:01:16;100445.37;;;17.09;57.53
60642;BME280;46837;52.446;-1.930;2022-07-29T03:02:09;100445.28;;;16.95;57.81
60642;BME280;46837;52.446;-1.930;2022-07-29T03:03:12;100443.00;;;16.91;57.99
60642;BME280;46837;52.446;-1.930;2022-07-29T03:04:10;100443.78;;;16.96;57.84
60642;BME280;46837;52.446;-1.930;2022-07-29T03:05:09;100443.24;;;16.92;57.91
60642;BME280;46837;52.446;-1.930;2022-07-29T03:06:09;100440.22;;;16.98;57.76
60642;BME280;46837;52.446;-1.930;2022-07-29T03:07:09;100440.29;;;16.94;57.88
60642;BME280;46837;52.446;-1.930;2022-07-29T03:08:10;100443.50;;;16.96;57.83
60642;BME280;46837;52.446;-1.930;2022-07-29T03:09:09;100442.71;;;17.02;57.64
60642;BME280;46837;52.446;-1.930;2022-07-29T03:10:09;100440.00;;;17.03;57.63
60642;BME280;46837;52.446;-1.930;2022-07-29T03:11:09;100443.85;;;17.07;57.60
60642;BME280;46837;52.446;-1.930;2022-07-29T03:12:09;100441.58;;;17.04;57.61
60642;BME280;46837;52.446;-1.930;2022-07-29T03:13:09;100444.48;;;17.03;57.69
60642;BME280;46837;52.446;-1.930;2022-07-29T03:14:09;100445.60;;;17.06;57.63
60642;BME280;46837;52.446;-1.930;2022-07-29T03:15:09;100446.82;;;17.10;57.54
60642;BME280;46837;52.446;-1.930;2022-07-29T03:16:09;100444.15;;;17.12;57.48
60642;BME280;46837;52.446;-1.930;2022-07-29T03:17:10;100445.71;;;17.11;57.54
60642;BME280;46837;52.446;-1.930;2022-07-29T03:18:09;100439.86;;;17.10;57.52
60642;BME280;46837;52.446;-1.930;2022-07-29T03:19:09;100446.73;;;17.16;57.39
60642;BME280;46837;52.446;-1.930;2022-07-29T03:20:09;100448.61;;;17.15;57.50
60642;BME280;46837;52.446;-1.930;2022-07-29T03:21:09;100444.55;;;17.13;57.49
60642;BME280;46837;52.446;-1.930;2022-07-29T03:22:09;100448.17;;;17.15;57.50
60642;BME280;46837;52.446;-1.930;2022-07-29T03:23:09;100446.57;;;17.20;57.29
60642;BME280;46837;52.446;-1.930;2022-07-29T03:24:09;100449.80;;;17.22;57.41
60642;BME280;46837;52.446;-1.930;2022-07-29T03:25:09;100446.57;;;17.20;57.40
60642;BME280;46837;52.446;-1.930;2022-07-29T03:26:09;100447.10;;;17.24;57.33
60642;BME280;46837;52.446;-1.930;2022-07-29T03:27:09;100447.45;;;17.20;57.38
60642;BME280;46837;52.446;-1.930;2022-07-29T03:28:09;100447.76;;;17.19;57.38
60642;BME280;46837;52.446;-1.930;2022-07-29T03:29:09;100443.93;;;17.16;57.36
60642;BME280;46837;52.446;-1.930;2022-07-29T03:30:09;100446.13;;;17.17;57.45
60642;BME280;46837;52.446;-1.930;2022-07-29T03:31:09;100441.98;;;17.18;57.41
60642;BME280;46837;52.446;-1.930;2022-07-29T03:32:09;100445.33;;;17.19;57.33
60642;BME280;46837;52.446;-1.930;2022-07-29T03:33:09;100444.54;;;17.11;57.54
60642;BME280;46837;52.446;-1.930;2022-07-29T03:34:09;100445.58;;;17.15;57.59
60642;BME280;46837;52.446;-1.930;2022-07-29T03:35:09;100446.48;;;17.11;57.63
60642;BME280;46837;52.446;-1.930;2022-07-29T03:36:09;100444.93;;;17.13;57.69
60642;BME280;46837;52.446;-1.930;2022-07-29T03:37:09;100446.54;;;17.13;57.73
60642;BME280;46837;52.446;-1.930;2022-07-29T03:38:09;100444.51;;;17.07;57.88
60642;BME280;46837;52.446;-1.930;2022-07-29T03:39:09;100441.72;;;17.09;57.76
60642;BME280;46837;52.446;-1.930;2022-07-29T03:40:10;100445.25;;;17.14;57.71
60642;BME280;46837;52.446;-1.930;2022-07-29T03:41:09;100445.20;;;17.14;57.68
60642;BME280;46837;52.446;-1.930;2022-07-29T03:42:10;100447.22;;;17.16;57.63
60642;BME280;46837;52.446;-1.930;2022-07-29T03:43:09;100450.77;;;17.15;57.60
60642;BME280;46837;52.446;-1.930;2022-07-29T03:44:09;100451.50;;;17.08;57.73
60642;BME280;46837;52.446;-1.930;2022-07-29T03:45:10;100448.89;;;17.01;57.87
60642;BME280;46837;52.446;-1.930;2022-07-29T03:46:09;100448.39;;;17.06;57.79
60642;BME280;46837;52.446;-1.930;2022-07-29T03:47:09;100448.16;;;16.99;58.05
60642;BME280;46837;52.446;-1.930;2022-07-29T03:48:10;100451.13;;;16.93;58.19
60642;BME280;46837;52.446;-1.930;2022-07-29T03:49:09;100454.79;;;16.99;58.13
60642;BME280;46837;52.446;-1.930;2022-07-29T03:50:10;100450.91;;;16.90;58.27
60642;BME280;46837;52.446;-1.930;2022-07-29T03:51:09;100455.07;;;16.85;58.48
60642;BME280;46837;52.446;-1.930;2022-07-29T03:52:09;100460.93;;;16.85;58.50
60642;BME280;46837;52.446;-1.930;2022-07-29T03:53:09;100458.78;;;16.79;58.69
60642;BME280;46837;52.446;-1.930;2022-07-29T03:54:09;100458.88;;;16.83;58.57
60642;BME280;46837;52.446;-1.930;2022-07-29T03:55:09;100457.82;;;16.83;58.51
60642;BME280;46837;52.446;-1.930;2022-07-29T03:56:09;100459.33;;;16.82;58.66
60642;BME280;46837;52.446;-1.930;2022-07-29T03:57:09;100462.70;;;16.79;58.73
60642;BME280;46837;52.446;-1.930;2022-07-29T03:58:09;100459.21;;;16.77;58.84
60642;BME280;46837;52.446;-1.930;2022-07-29T03:59:09;100461.95;;;16.73;58.98
60642;BME280;46837;52.446;-1.930;2022-07-29T04:00:09;100462.81;;;16.76;58.96
60642;BME280;46837;52.446;-1.930;2022-07-29T04:01:09;100462.81;;;16.79;58.92
60642;BME280;46837;52.446;-1.930;2022-07-29T04:02:09;100463.20;;;16.78;58.95
60642;BME280;46837;52.446;-1.930;2022-07-29T04:03:09;100459.54;;;16.86;58.75
60642;BME280;46837;52.446;-1.930;2022-07-29T04:04:09;100464.16;;;16.92;58.56
60642;BME280;46837;52.446;-1.930;2022-07-29T04:05:12;100465.55;;;16.92;58.63
60642;BME280;46837;52.446;-1.930;2022-07-29T04:06:11;100464.96;;;16.91;58.80
60642;BME280;46837;52.446;-1.930;2022-07-29T04:07:12;100462.99;;;16.91;58.82
60642;BME280;46837;52.446;-1.930;2022-07-29T04:08:09;100460.64;;;16.89;58.92
60642;BME280;46837;52.446;-1.930;2022-07-29T04:09:09;100462.65;;;16.76;59.36
60642;BME280;46837;52.446;-1.930;2022-07-29T04:10:09;100460.59;;;16.83;59.17
60642;BME280;46837;52.446;-1.930;2022-07-29T04:11:09;100460.58;;;16.84;59.21
60642;BME280;46837;52.446;-1.930;2022-07-29T04:12:09;100459.29;;;16.88;59.17
60642;BME280;46837;52.446;-1.930;2022-07-29T04:13:09;100458.77;;;16.86;59.24
60642;BME280;46837;52.446;-1.930;2022-07-29T04:14:09;100461.07;;;16.87;59.22
60642;BME280;46837;52.446;-1.930;2022-07-29T04:15:09;100460.55;;;16.81;59.45
60642;BME280;46837;52.446;-1.930;2022-07-29T04:16:09;100459.28;;;16.81;59.47
60642;BME280;46837;52.446;-1.930;2022-07-29T04:17:09;100461.52;;;16.86;59.35
60642;BME280;46837;52.446;-1.930;2022-07-29T04:18:09;100462.66;;;16.85;59.50
60642;BME280;46837;52.446;-1.930;2022-07-29T04:19:09;100461.30;;;16.83;59.59
60642;BME280;46837;52.446;-1.930;2022-07-29T04:20:09;100460.82;;;16.76;59.76
60642;BME280;46837;52.446;-1.930;2022-07-29T04:21:09;100465.80;;;16.78;59.72
60642;BME280;46837;52.446;-1.930;2022-07-29T04:22:09;100466.03;;;16.87;59.41
60642;BME280;46837;52.446;-1.930;2022-07-29T04:23:09;100464.51;;;16.85;59.54
60642;BME280;46837;52.446;-1.930;2022-07-29T04:24:09;100463.24;;;16.85;59.59
60642;BME280;46837;52.446;-1.930;2022-07-29T04:25:09;100466.77;;;16.89;59.53
60642;BME280;46837;52.446;-1.930;2022-07-29T04:26:09;100464.17;;;16.89;59.62
60642;BME280;46837;52.446;-1.930;2022-07-29T04:27:09;100465.59;;;16.87;59.77
60642;BME280;46837;52.446;-1.930;2022-07-29T04:28:09;100467.48;;;16.86;59.78
60642;BME280;46837;52.446;-1.930;2022-07-29T04:29:09;100464.62;;;16.83;59.96
60642;BME280;46837;52.446;-1.930;2022-07-29T04:30:09;100468.05;;;16.82;60.00
60642;BME280;46837;52.446;-1.930;2022-07-29T04:31:09;100471.46;;;16.86;59.93
60642;BME280;46837;52.446;-1.930;2022-07-29T04:32:09;100472.12;;;16.89;59.87
60642;BME280;46837;52.446;-1.930;2022-07-29T04:33:09;100470.63;;;16.83;60.06
60642;BME280;46837;52.446;-1.930;2022-07-29T04:34:09;100474.02;;;16.78;60.26
60642;BME280;46837;52.446;-1.930;2022-07-29T04:35:09;100472.01;;;16.80;60.22
60642;BME280;46837;52.446;-1.930;2022-07-29T04:36:09;100470.73;;;16.72;60.54
60642;BME280;46837;52.446;-1.930;2022-07-29T04:37:09;100471.28;;;16.72;60.56
60642;BME280;46837;52.446;-1.930;2022-07-29T04:38:09;100471.49;;;16.74;60.55
60642;BME280;46837;52.446;-1.930;2022-07-29T04:39:09;100470.70;;;16.76;60.49
60642;BME280;46837;52.446;-1.930;2022-07-29T04:40:09;100471.83;;;16.73;60.64
60642;BME280;46837;52.446;-1.930;2022-07-29T04:41:09;100471.28;;;16.66;60.86
60642;BME280;46837;52.446;-1.930;2022-07-29T04:42:09;100470.00;;;16.74;60.66
60642;BME280;46837;52.446;-1.930;2022-07-29T04:43:09;100469.64;;;16.77;60.61
60642;BME280;46837;52.446;-1.930;2022-07-29T04:44:09;100470.19;;;16.77;60.66
60642;BME280;46837;52.446;-1.930;2022-07-29T04:45:09;100471.23;;;16.81;60.56
60642;BME280;46837;52.446;-1.930;2022-07-29T04:46:09;100474.43;;;16.81;60.63
60642;BME280;46837;52.446;-1.930;2022-07-29T04:47:09;100473.00;;;16.71;60.99
60642;BME280;46837;52.446;-1.930;2022-07-29T04:48:09;100471.22;;;16.70;61.10
60642;BME280;46837;52.446;-1.930;2022-07-29T04:49:09;100469.63;;;16.72;61.07
60642;BME280;46837;52.446;-1.930;2022-07-29T04:50:09;100471.44;;;16.67;61.29
60642;BME280;46837;52.446;-1.930;2022-07-29T04:51:09;100466.54;;;16.64;61.48
60642;BME280;46837;52.446;-1.930;2022-07-29T04:52:09;100468.53;;;16.66;61.48
60642;BME280;46837;52.446;-1.930;2022-07-29T04:53:09;100469.39;;;16.73;61.24
60642;BME280;46837;52.446;-1.930;2022-07-29T04:54:09;100468.23;;;16.73;61.24
60642;BME280;46837;52.446;-1.930;2022-07-29T04:55:09;100467.25;;;16.66;61.52
60642;BME280;46837;52.446;-1.930;2022-07-29T04:56:09;100470.72;;;16.70;61.53
60642;BME280;46837;52.446;-1.930;2022-07-29T04:57:09;100472.82;;;16.74;61.45
60642;BME280;46837;52.446;-1.930;2022-07-29T04:58:09;100475.48;;;16.80;61.31
60642;BME280;46837;52.446;-1.930;2022-07-29T04:59:09;100472.50;;;16.84;61.29
60642;BME280;46837;52.446;-1.930;2022-07-29T05:00:09;100473.04;;;16.87;61.18
60642;BME280;46837;52.446;-1.930;2022-07-29T05:01:09;100474.98;;;16.90;61.17
60642;BME280;46837;52.446;-1.930;2022-07-29T05:02:09;100474.46;;;16.81;61.45
60642;BME280;46837;52.446;-1.930;2022-07-29T05:03:09;100475.43;;;16.77;61.58
60642;BME280;46837;52.446;-1.930;2022-07-29T05:04:09;100475.04;;;16.83;61.49
60642;BME280;46837;52.446;-1.930;2022-07-29T05:05:09;100480.30;;;16.82;61.53
60642;BME280;46837;52.446;-1.930;2022-07-29T05:06:09;100479.90;;;16.83;61.59
60642;BME280;46837;52.446;-1.930;2022-07-29T05:07:09;100481.52;;;16.85;61.60
60642;BME280;46837;52.446;-1.930;2022-07-29T05:08:09;100485.96;;;16.84;61.77
60642;BME280;46837;52.446;-1.930;2022-07-29T05:09:09;100486.44;;;16.78;61.96
60642;BME280;46837;52.446;-1.930;2022-07-29T05:10:09;100484.64;;;16.81;61.80
60642;BME280;46837;52.446;-1.930;2022-07-29T05:11:09;100485.95;;;16.88;61.50
60642;BME280;46837;52.446;-1.930;2022-07-29T05:12:09;100487.67;;;16.88;61.54
60642;BME280;46837;52.446;-1.930;2022-07-29T05:13:09;100489.01;;;16.86;61.75
60642;BME280;46837;52.446;-1.930;2022-07-29T05:14:09;100483.78;;;16.85;61.78
60642;BME280;46837;52.446;-1.930;2022-07-29T05:15:09;100489.34;;;16.89;61.69
60642;BME280;46837;52.446;-1.930;2022-07-29T05:16:09;100488.23;;;16.92;61.70
60642;BME280;46837;52.446;-1.930;2022-07-29T05:17:09;100487.95;;;16.81;62.20
60642;BME280;46837;52.446;-1.930;2022-07-29T05:18:09;100492.54;;;16.80;62.36
60642;BME280;46837;52.446;-1.930;2022-07-29T05:19:09;100491.45;;;16.83;62.32
60642;BME280;46837;52.446;-1.930;2022-07-29T05:20:09;100492.18;;;16.75;62.47
60642;BME280;46837;52.446;-1.930;2022-07-29T05:21:09;100492.32;;;16.81;62.32
60642;BME280;46837;52.446;-1.930;2022-07-29T05:22:09;100493.04;;;16.83;62.34
60642;BME280;46837;52.446;-1.930;2022-07-29T05:23:09;100493.39;;;16.78;62.51
60642;BME280;46837;52.446;-1.930;2022-07-29T05:24:09;100494.35;;;16.72;62.75
60642;BME280;46837;52.446;-1.930;2022-07-29T05:25:09;100497.38;;;16.74;62.67